Melrose, Massachusetts
Current Conditions -  °F | °C
As of 5:54 AM on Thursday 23 Oct 2014 (Local Time) from KBOS Reporting Station
Heavy Rain Heavy Rain  
Wind Chill: 51°   Ceiling: 1100
Heat Index: 51°   Visibility: 3mi
Dew Point: 50°   Wind: 29mph
Humidity: 96%   Direction: 10°N
Pressure: 29.67"   Gusts: 41mph
Location:  42.46°N, 71.06°W
Report Text: KBOS 230954Z 01025G36KT 3SM +RA BR BKN011 BKN017 OVC050 11/10 A2967 RMK AO2 PK WND 01036/0951 SLP045 P0021 T01060100 $
Loading
Personal Weather Stations






























Interactive Weather Map
Tropical Storm Tracking
New forecast layout! Learn more

10-Day Weather Forecast

Advertisements
Track Severe Weather on mobile